📊 Raw Sensor Data

Showing records 46751 to 46775 of 85,075 total

ID Distance (ft) Battery V Battery A Int Temp (°F) Int Humid (%) Ext Temp (°F) Solar V RSSI SNR Time Stamp
38337 -- 3.94 7 59 39 59 5.10 -81 8 04/20/2025 09:31 AM
38336 -- 3.94 8 57 39 63 5.10 -85 9 04/20/2025 09:15 AM
38335 -- 3.97 0 56 39 58 5.10 -81 8 04/20/2025 09:00 AM
38334 -- 3.97 0 54 40 57 5.10 -85 8 04/20/2025 08:45 AM
38333 -- 3.94 8 54 40 57 5.10 -87 8 04/20/2025 08:30 AM
38332 -- 3.94 8 53 39 56 5.10 -85 8 04/20/2025 08:16 AM
38331 -- 3.94 0 52 39 59 5.10 -86 8 04/20/2025 08:00 AM
38330 -- 4.06 35 51 39 57 4.50 -86 5 04/20/2025 07:45 AM
38329 -- 4.00 36 49 39 58 4.50 -86 7 04/20/2025 07:31 AM
38328 -- 3.94 0 47 40 56 4.50 -83 8 04/20/2025 07:15 AM
38327 -- 3.94 7 45 40 52 4.50 -85 8 04/20/2025 07:00 AM
38326 -- 3.87 0 43 41 46 4.50 -86 8 04/20/2025 06:45 AM
38325 -- 3.86 -9 43 41 44 4.50 -82 7 04/20/2025 06:30 AM
38324 -- 3.92 -5 43 41 44 1.30 -82 8 04/20/2025 06:15 AM
38323 -- 3.86 -5 43 41 44 0.00 -84 8 04/20/2025 06:00 AM
38322 -- 3.92 -5 43 41 44 0.00 -84 8 04/20/2025 05:46 AM
38321 -- 3.87 -5 43 41 44 0.00 -83 8 04/20/2025 05:31 AM
38320 -- 3.87 -5 43 41 45 0.00 -83 7 04/20/2025 05:15 AM
38319 -- 3.87 -5 43 41 44 0.00 -83 8 04/20/2025 05:00 AM
38318 15.0 3.87 -5 44 41 45 0.10 -84 8 04/20/2025 04:45 AM
38317 -- 3.92 -5 44 41 45 0.00 -84 7 04/20/2025 04:30 AM
38316 14.9 3.87 -5 45 41 45 0.00 -87 7 04/20/2025 04:15 AM
38315 -- 3.87 -24 45 41 47 0.10 -90 8 04/20/2025 04:00 AM
38314 14.9 3.87 -5 45 41 47 0.00 -89 7 04/20/2025 03:45 AM
38313 -- 3.87 -5 46 41 47 0.00 -85 8 04/20/2025 03:30 AM